Time;durP1;ratioP1;P1;durP2;ratioP2;P2;SDS_P1;SDS_P2;PMS_P1;PMS_P2;Temp;Humidity;BMP_temperature;BMP_pressure;BME280_temperature;BME280_humidity;BME280_pressure;Samples;Min_cycle;Max_cycle;Signal;HPM_P1;HPM_P2
2021/09/13 00:01:03;;;;;;;15.70;8.03;;;17.10;89.30;;;;;;5052561;28;20234;-66
2021/09/13 00:03:31;;;;;;;16.40;9.10;;;16.90;89.70;;;;;;5054103;28;20191;-67
2021/09/13 00:05:58;;;;;;;19.10;14.83;;;16.60;90.40;;;;;;5042274;28;20176;-67
2021/09/13 00:08:25;;;;;;;16.30;9.53;;;16.50;90.80;;;;;;5047845;28;20191;-66
2021/09/13 00:10:53;;;;;;;16.27;8.03;;;16.50;91.50;;;;;;5053348;28;20187;-67
2021/09/13 00:13:22;;;;;;;36.80;12.50;;;16.30;91.80;;;;;;5051651;28;20218;-66
2021/09/13 00:15:50;;;;;;;17.40;9.63;;;16.30;94.00;;;;;;5053555;28;20462;-66
2021/09/13 00:18:18;;;;;;;16.03;8.40;;;16.20;97.10;;;;;;5054297;28;20975;-66
2021/09/13 00:20:45;;;;;;;17.83;11.37;;;16.20;99.20;;;;;;5054176;28;20508;-66
2021/09/13 00:23:13;;;;;;;15.07;7.67;;;16.20;99.90;;;;;;5053483;28;20421;-67
2021/09/13 00:25:40;;;;;;;15.87;8.87;;;16.00;99.90;;;;;;5052786;28;20433;-66
2021/09/13 00:28:07;;;;;;;26.97;7.47;;;15.80;99.90;;;;;;5054161;28;20463;-66
2021/09/13 00:30:35;;;;;;;16.73;10.03;;;15.90;99.90;;;;;;5053313;28;20468;-66
2021/09/13 00:33:02;;;;;;;14.50;6.70;;;16.00;99.90;;;;;;5052645;28;20420;-66
2021/09/13 00:35:29;;;;;;;18.30;13.77;;;16.10;99.90;;;;;;5050404;28;20807;-66
2021/09/13 00:37:57;;;;;;;15.13;8.07;;;16.20;99.90;;;;;;5052249;28;20749;-67
2021/09/13 00:40:24;;;;;;;16.87;10.47;;;16.30;99.90;;;;;;5052764;28;20417;-68
2021/09/13 00:42:52;;;;;;;15.57;8.70;;;16.50;99.90;;;;;;5051479;28;20243;-67
2021/09/13 00:45:20;;;;;;;15.83;9.00;;;16.70;99.70;;;;;;5053620;28;20783;-66
2021/09/13 00:47:47;;;;;;;16.53;9.23;;;17.20;99.00;;;;;;5052737;28;20413;-67
2021/09/13 00:50:15;;;;;;;15.10;7.47;;;17.90;96.10;;;;;;5033485;28;20230;-67
2021/09/13 00:52:45;;;;;;;16.80;9.80;;;18.20;94.40;;;;;;5047460;28;20187;-66
2021/09/13 00:55:13;;;;;;;16.53;10.47;;;18.80;92.50;;;;;;5048105;28;20215;-66
2021/09/13 00:57:40;;;;;;;14.53;7.80;;;18.90;90.90;;;;;;5053345;28;20267;-66
2021/09/13 01:00:09;;;;;;;13.70;6.50;;;18.50;90.80;;;;;;5053088;28;20195;-67
2021/09/13 01:02:37;;;;;;;21.27;8.97;;;18.10;91.10;;;;;;5050011;28;20219;-66
2021/09/13 01:05:05;;;;;;;15.73;8.83;;;17.70;92.70;;;;;;5050961;28;20282;-66
2021/09/13 01:07:33;;;;;;;16.03;7.97;;;17.40;92.80;;;;;;5049524;28;20179;-65
2021/09/13 01:10:01;;;;;;;20.10;8.90;;;17.10;93.80;;;;;;5053289;28;20269;-66
2021/09/13 01:12:31;;;;;;;16.90;10.83;;;16.90;94.50;;;;;;5051428;28;20211;-67
2021/09/13 01:14:59;;;;;;;15.23;7.27;;;16.80;94.70;;;;;;5053520;28;20335;-67
2021/09/13 01:17:26;;;;;;;16.43;8.83;;;16.80;95.20;;;;;;5053387;28;20237;-67
2021/09/13 01:19:53;;;;;;;16.87;10.33;;;16.80;94.00;;;;;;5053298;28;20192;-66
2021/09/13 01:22:21;;;;;;;15.73;8.47;;;16.80;93.60;;;;;;5052953;28;20178;-65
2021/09/13 01:24:48;;;;;;;18.10;11.43;;;16.90;93.00;;;;;;5052174;28;20190;-65
2021/09/13 01:27:16;;;;;;;16.47;9.23;;;16.80;92.80;;;;;;5053289;28;20424;-66
2021/09/13 01:29:43;;;;;;;16.77;9.87;;;16.90;93.30;;;;;;5085361;28;20253;-66
2021/09/13 01:32:11;;;;;;;15.03;6.87;;;16.90;93.70;;;;;;5053332;28;20191;-66
2021/09/13 01:34:39;;;;;;;19.20;12.50;;;16.90;94.00;;;;;;5049563;28;20191;-66
2021/09/13 01:37:07;;;;;;;16.50;9.13;;;17.00;94.30;;;;;;5053278;28;20186;-66
2021/09/13 01:39:34;;;;;;;22.73;9.43;;;17.00;94.80;;;;;;5052578;28;20652;-66
2021/09/13 01:42:02;;;;;;;14.70;6.43;;;17.00;95.80;;;;;;5053071;28;20704;-66
2021/09/13 01:44:29;;;;;;;19.60;6.30;;;17.10;95.70;;;;;;5052914;28;20270;-66
2021/09/13 01:46:56;;;;;;;15.10;5.93;;;17.30;95.10;;;;;;5053214;28;20708;-66
2021/09/13 01:49:24;;;;;;;16.37;7.63;;;17.60;95.20;;;;;;5052921;28;20305;-67
2021/09/13 01:51:51;;;;;;;14.70;5.13;;;18.20;94.30;;;;;;5052243;28;20250;-67
2021/09/13 01:54:19;;;;;;;14.87;5.40;;;18.40;92.30;;;;;;5052102;28;20578;-66
2021/09/13 01:56:46;;;;;;;18.10;9.30;;;18.30;92.40;;;;;;5052545;28;20646;-67
2021/09/13 01:59:13;;;;;;;16.27;8.20;;;18.00;92.30;;;;;;5052865;28;20187;-66
2021/09/13 02:01:41;;;;;;;15.00;5.67;;;17.80;93.10;;;;;;5052736;28;20561;-67
2021/09/13 02:04:09;;;;;;;15.50;6.60;;;17.50;93.60;;;;;;5052828;28;20543;-66
2021/09/13 02:06:36;;;;;;;15.97;7.97;;;17.40;94.50;;;;;;5052145;28;20292;-67
2021/09/13 02:09:04;;;;;;;14.97;5.87;;;17.30;95.20;;;;;;5051451;28;20223;-66
2021/09/13 02:11:31;;;;;;;17.73;10.10;;;17.40;95.40;;;;;;5041662;28;20179;-66
2021/09/13 02:13:59;;;;;;;16.53;6.27;;;17.40;95.00;;;;;;5048330;28;20183;-68
2021/09/13 02:16:26;;;;;;;16.80;8.33;;;17.30;95.00;;;;;;5053841;28;20535;-67
2021/09/13 02:18:53;;;;;;;16.03;6.97;;;17.30;94.10;;;;;;5057052;28;20184;-67
2021/09/13 02:21:21;;;;;;;15.30;6.23;;;17.10;94.40;;;;;;5052662;28;20187;-65
2021/09/13 02:23:48;;;;;;;19.47;12.27;;;17.10;94.00;;;;;;5051544;28;20171;-66
2021/09/13 02:26:16;;;;;;;15.97;7.63;;;17.30;93.60;;;;;;5034015;28;20274;-66
2021/09/13 02:28:43;;;;;;;17.10;9.20;;;17.80;92.20;;;;;;5036708;28;20205;-66
2021/09/13 02:31:10;;;;;;;16.37;8.17;;;18.10;91.80;;;;;;5046311;28;23986;-66
2021/09/13 02:33:38;;;;;;;15.20;6.33;;;18.30;92.20;;;;;;5052479;28;20511;-68
2021/09/13 02:36:05;;;;;;;15.73;6.83;;;18.50;91.60;;;;;;5052308;28;20180;-68
2021/09/13 02:38:32;;;;;;;17.63;10.33;;;18.50;91.70;;;;;;5051824;28;20521;-67
2021/09/13 02:41:00;;;;;;;16.03;7.13;;;18.30;91.00;;;;;;5052376;28;20182;-68
2021/09/13 02:43:27;;;;;;;15.30;6.33;;;18.20;91.00;;;;;;5052566;28;20168;-67
2021/09/13 02:45:54;;;;;;;15.40;6.67;;;18.20;91.30;;;;;;5038864;28;20195;-67
2021/09/13 02:48:22;;;;;;;15.43;6.77;;;18.10;91.50;;;;;;5045653;28;20191;-68
2021/09/13 02:50:49;;;;;;;20.00;9.00;;;18.10;91.50;;;;;;5050550;28;20567;-68
2021/09/13 02:53:16;;;;;;;17.00;9.00;;;18.20;92.10;;;;;;5047764;28;20179;-67
2021/09/13 02:55:44;;;;;;;14.77;5.33;;;18.20;92.50;;;;;;5051997;28;20172;-67
2021/09/13 02:58:11;;;;;;;15.37;6.53;;;18.00;92.60;;;;;;5052066;28;20187;-68
2021/09/13 03:00:38;;;;;;;16.93;7.43;;;17.90;92.70;;;;;;5051664;28;20184;-68
2021/09/13 03:03:06;;;;;;;16.63;8.10;;;17.80;93.00;;;;;;5051421;28;20330;-67
2021/09/13 03:05:33;;;;;;;16.23;7.53;;;17.60;93.20;;;;;;5042483;28;20195;-68
2021/09/13 03:08:00;;;;;;;15.53;6.93;;;17.40;93.70;;;;;;5050916;28;20264;-66
2021/09/13 03:10:28;;;;;;;15.70;6.93;;;17.40;93.20;;;;;;5047105;28;20207;-67
2021/09/13 03:12:55;;;;;;;17.77;9.43;;;17.50;92.50;;;;;;5046671;28;20173;-68
2021/09/13 03:15:22;;;;;;;15.23;6.43;;;17.60;92.00;;;;;;5047178;28;20216;-66
2021/09/13 03:17:50;;;;;;;17.07;7.90;;;17.60;91.50;;;;;;5050408;28;20205;-66
2021/09/13 03:20:18;;;;;;;15.73;6.97;;;17.80;91.00;;;;;;5051598;28;20176;-66
2021/09/13 03:22:46;;;;;;;15.80;7.30;;;17.80;90.90;;;;;;5055814;28;20164;-66
2021/09/13 03:25:13;;;;;;;14.97;5.93;;;17.80;90.40;;;;;;5054634;28;20572;-67
2021/09/13 03:27:41;;;;;;;15.33;6.17;;;17.80;90.30;;;;;;5047204;28;20183;-67
2021/09/13 03:30:09;;;;;;;17.27;6.90;;;17.80;90.60;;;;;;5054581;28;20737;-66
2021/09/13 03:32:36;;;;;;;15.93;7.50;;;17.70;91.60;;;;;;5051797;28;20172;-67
2021/09/13 03:35:04;;;;;;;16.40;7.40;;;17.60;92.40;;;;;;5055080;28;20188;-67
2021/09/13 03:37:31;;;;;;;16.20;7.07;;;17.30;93.10;;;;;;5036169;28;20341;-67
2021/09/13 03:39:58;;;;;;;16.00;6.90;;;17.40;93.30;;;;;;5052157;28;20176;-67
2021/09/13 03:42:26;;;;;;;20.23;8.87;;;17.30;94.00;;;;;;5054614;28;20211;-67
2021/09/13 03:44:53;;;;;;;16.43;8.27;;;17.20;94.40;;;;;;5043047;28;20591;-67
2021/09/13 03:47:20;;;;;;;19.03;9.43;;;17.20;94.30;;;;;;5055045;28;20215;-66
2021/09/13 03:49:48;;;;;;;20.10;6.83;;;17.40;94.10;;;;;;5053144;28;20207;-69
2021/09/13 03:52:16;;;;;;;21.60;12.60;;;17.70;93.30;;;;;;5047109;28;20659;-67
2021/09/13 03:54:43;;;;;;;16.70;9.43;;;17.70;93.00;;;;;;5050379;28;20184;-67
2021/09/13 03:57:10;;;;;;;15.53;6.93;;;18.00;93.20;;;;;;5053612;28;20234;-68
2021/09/13 03:59:38;;;;;;;17.73;11.00;;;18.50;92.40;;;;;;5053241;28;20658;-68
2021/09/13 04:02:05;;;;;;;14.90;8.70;;;19.10;91.40;;;;;;5052165;28;20216;-67
2021/09/13 04:04:33;;;;;;;16.30;10.47;;;19.40;88.50;;;;;;5052756;28;20230;-68
2021/09/13 04:07:04;;;;;;;15.77;10.57;;;19.20;88.20;;;;;;5045038;28;20651;-66
2021/09/13 04:12:02;;;;;;;18.40;10.83;;;18.00;87.90;;;;;;5052554;28;20646;-66
2021/09/13 04:14:31;;;;;;;18.90;11.83;;;17.60;88.40;;;;;;5049927;28;20184;-67
2021/09/13 04:16:58;;;;;;;17.83;9.87;;;17.50;90.50;;;;;;5047544;28;20187;-67
2021/09/13 04:19:26;;;;;;;20.10;9.00;;;17.30;90.40;;;;;;5051016;28;20230;-66
2021/09/13 04:21:54;;;;;;;19.50;9.60;;;17.20;90.80;;;;;;5045473;28;20542;-68
2021/09/13 04:24:22;;;;;;;15.90;7.40;;;17.20;91.00;;;;;;5051335;28;20252;-66
2021/09/13 04:26:50;;;;;;;19.73;11.27;;;17.10;91.00;;;;;;5049845;28;20191;-67
2021/09/13 04:29:18;;;;;;;17.50;8.77;;;17.00;91.60;;;;;;5049809;28;20564;-68
2021/09/13 04:31:46;;;;;;;15.80;7.87;;;17.00;92.30;;;;;;5045714;28;20179;-68
2021/09/13 04:34:13;;;;;;;16.80;8.73;;;16.90;93.00;;;;;;5049152;28;20206;-68
2021/09/13 04:36:41;;;;;;;16.83;9.27;;;16.90;92.70;;;;;;5045852;28;20309;-68
2021/09/13 04:39:08;;;;;;;15.60;7.40;;;16.90;92.80;;;;;;5049926;28;20180;-67
2021/09/13 04:41:36;;;;;;;16.00;7.37;;;16.70;93.60;;;;;;5049143;28;20185;-67
2021/09/13 04:44:04;;;;;;;16.43;9.30;;;16.90;93.90;;;;;;5051689;28;20517;-67
2021/09/13 04:46:31;;;;;;;15.73;8.37;;;16.70;94.00;;;;;;5047966;28;20192;-68
2021/09/13 04:48:59;;;;;;;15.50;7.27;;;16.70;94.70;;;;;;5054275;28;20264;-67
2021/09/13 04:51:27;;;;;;;17.60;7.00;;;17.00;93.60;;;;;;5051481;28;20203;-67
2021/09/13 04:53:55;;;;;;;17.80;9.40;;;16.80;93.70;;;;;;5049203;28;20187;-66
2021/09/13 04:56:22;;;;;;;16.33;8.30;;;16.70;93.30;;;;;;5049681;28;20843;-67
2021/09/13 04:58:51;;;;;;;15.00;6.07;;;16.60;93.80;;;;;;5051231;28;20193;-67
2021/09/13 05:01:18;;;;;;;21.43;10.60;;;16.60;93.40;;;;;;5048030;28;20244;-67
2021/09/13 05:03:47;;;;;;;16.77;7.83;;;16.20;93.60;;;;;;5051723;28;20184;-67
2021/09/13 05:06:15;;;;;;;17.20;9.60;;;16.20;94.00;;;;;;5046183;28;20770;-68
2021/09/13 05:08:42;;;;;;;24.83;12.70;;;16.30;94.00;;;;;;5044661;28;20672;-66
2021/09/13 05:11:09;;;;;;;17.97;10.03;;;16.20;93.90;;;;;;5050564;28;20676;-66
2021/09/13 05:13:37;;;;;;;16.40;8.30;;;16.30;93.90;;;;;;5051046;28;20171;-67
2021/09/13 05:16:04;;;;;;;15.73;7.50;;;16.30;94.20;;;;;;5046816;28;20731;-66
2021/09/13 05:18:32;;;;;;;17.37;8.83;;;16.40;93.90;;;;;;5043022;28;20205;-66
2021/09/13 05:20:59;;;;;;;18.27;10.00;;;16.30;93.80;;;;;;5049393;28;20181;-66
2021/09/13 05:23:27;;;;;;;27.00;13.63;;;16.20;93.50;;;;;;5050654;28;20226;-67
2021/09/13 05:25:54;;;;;;;731.73;173.13;;;16.20;93.10;;;;;;5050844;28;20222;-66
2021/09/13 05:28:21;;;;;;;948.93;241.33;;;16.50;92.50;;;;;;5046187;28;20778;-67
2021/09/13 05:30:49;;;;;;;15.43;5.70;;;17.30;91.50;;;;;;5040386;28;20472;-66
2021/09/13 05:33:17;;;;;;;16.70;6.60;;;18.40;89.50;;;;;;5046210;28;20216;-66
2021/09/13 05:35:45;;;;;;;15.67;6.63;;;19.20;86.60;;;;;;5046597;28;20176;-67
2021/09/13 05:38:12;;;;;;;16.07;6.97;;;19.00;86.60;;;;;;5047839;28;20188;-68
2021/09/13 05:40:40;;;;;;;17.63;7.50;;;18.80;86.80;;;;;;5051993;28;20191;-66
2021/09/13 05:43:09;;;;;;;16.03;7.53;;;17.80;88.90;;;;;;5049276;28;20234;-67
2021/09/13 05:45:37;;;;;;;15.67;6.23;;;17.20;91.30;;;;;;5051520;28;20187;-66
2021/09/13 05:48:05;;;;;;;16.93;8.97;;;16.80;92.70;;;;;;5045533;28;20286;-69
2021/09/13 05:50:33;;;;;;;16.83;9.10;;;16.40;94.50;;;;;;5051274;28;20228;-66
2021/09/13 05:53:00;;;;;;;18.03;11.33;;;16.10;95.80;;;;;;5050797;28;20180;-69
2021/09/13 05:55:28;;;;;;;16.33;8.37;;;15.90;96.40;;;;;;5045175;28;20192;-66
2021/09/13 05:57:55;;;;;;;17.47;10.23;;;15.70;97.60;;;;;;5049850;28;20184;-66
2021/09/13 06:00:22;;;;;;;16.60;7.40;;;15.50;97.70;;;;;;5045870;28;20183;-65
2021/09/13 06:02:50;;;;;;;14.93;5.97;;;15.40;98.40;;;;;;5048901;28;20452;-67
2021/09/13 06:05:19;;;;;;;19.73;10.30;;;15.40;98.70;;;;;;5049907;28;20244;-67
2021/09/13 06:07:46;;;;;;;18.00;11.27;;;15.30;99.40;;;;;;5045656;28;20180;-66
2021/09/13 06:10:14;;;;;;;15.90;7.23;;;15.40;99.70;;;;;;5048261;28;20215;-65
2021/09/13 06:12:41;;;;;;;17.53;10.60;;;15.40;99.20;;;;;;5049301;28;20636;-66
2021/09/13 06:15:09;;;;;;;15.97;7.17;;;15.30;99.50;;;;;;5051208;28;20191;-66
2021/09/13 06:17:36;;;;;;;18.03;6.17;;;15.30;99.60;;;;;;5052738;28;20181;-66
2021/09/13 06:20:04;;;;;;;14.97;6.20;;;15.40;99.90;;;;;;5048437;28;20206;-66
2021/09/13 06:22:32;;;;;;;16.53;9.07;;;15.30;99.90;;;;;;5051904;28;20638;-65
2021/09/13 06:25:00;;;;;;;18.50;11.17;;;15.00;99.90;;;;;;5045221;28;20444;-67
2021/09/13 06:27:27;;;;;;;18.60;7.23;;;15.10;99.90;;;;;;5046061;28;20417;-68
2021/09/13 06:29:54;;;;;;;16.07;7.77;;;15.10;99.90;;;;;;5050615;28;20461;-67
2021/09/13 06:32:22;;;;;;;18.97;7.17;;;15.10;99.90;;;;;;5050630;28;20198;-67
2021/09/13 06:34:49;;;;;;;16.67;9.10;;;15.10;99.90;;;;;;5050107;28;20462;-65
2021/09/13 06:37:19;;;;;;;15.83;7.57;;;15.00;99.90;;;;;;5050437;28;20416;-65
2021/09/13 06:39:48;;;;;;;14.97;6.47;;;14.80;99.90;;;;;;5050501;28;20668;-65
2021/09/13 06:42:15;;;;;;;15.53;7.77;;;14.70;99.90;;;;;;5052414;28;20455;-65
2021/09/13 06:44:46;;;;;;;21.13;7.60;;;14.60;99.90;;;;;;5052240;28;21000;-67
2021/09/13 06:49:59;;;;;;;14.97;6.67;;;14.50;99.90;;;;;;5048132;28;20576;-66
2021/09/13 06:52:26;;;;;;;15.73;7.37;;;14.40;99.90;;;;;;5051012;28;20223;-65
2021/09/13 06:54:54;;;;;;;18.43;10.53;;;14.40;99.90;;;;;;5051108;28;20433;-65
2021/09/13 06:57:21;;;;;;;15.17;7.10;;;14.30;99.90;;;;;;5056200;28;20413;-65
2021/09/13 06:59:48;;;;;;;17.97;11.60;;;14.20;99.90;;;;;;5054814;28;20515;-65
2021/09/13 07:02:16;;;;;;;15.40;7.40;;;14.20;99.90;;;;;;5053001;28;20467;-66
2021/09/13 07:04:43;;;;;;;15.97;9.07;;;14.10;99.90;;;;;;5056201;28;20507;-65
2021/09/13 07:07:10;;;;;;;17.37;9.17;;;14.10;99.90;;;;;;5056054;28;20838;-66
2021/09/13 07:09:38;;;;;;;15.73;7.97;;;14.00;99.90;;;;;;5055391;28;20452;-66
2021/09/13 07:12:05;;;;;;;16.97;10.07;;;13.90;99.90;;;;;;5054179;28;20474;-66
2021/09/13 07:14:33;;;;;;;16.47;9.80;;;13.90;99.90;;;;;;5054876;28;20491;-66
2021/09/13 07:17:01;;;;;;;16.20;8.53;;;13.90;99.90;;;;;;5053777;28;20471;-66
2021/09/13 07:19:28;;;;;;;15.70;7.97;;;14.00;99.90;;;;;;5042099;28;20405;-66
2021/09/13 07:21:55;;;;;;;14.63;6.17;;;13.90;99.90;;;;;;5055852;28;20456;-66
2021/09/13 07:24:23;;;;;;;14.80;6.57;;;13.90;99.90;;;;;;5053628;28;20432;-66
2021/09/13 07:26:50;;;;;;;16.23;8.33;;;13.90;99.90;;;;;;5055517;28;20771;-64
2021/09/13 07:29:17;;;;;;;16.77;9.47;;;13.80;99.90;;;;;;5055290;28;20495;-66
2021/09/13 07:31:45;;;;;;;15.83;8.10;;;13.80;99.90;;;;;;5055250;28;20933;-66
2021/09/13 07:34:12;;;;;;;17.27;10.37;;;13.80;99.90;;;;;;5055408;28;20432;-67
2021/09/13 07:36:39;;;;;;;18.93;10.10;;;13.80;99.90;;;;;;5055751;28;20424;-67
2021/09/13 07:39:07;;;;;;;20.87;8.13;;;13.70;99.90;;;;;;5054621;28;20519;-67
2021/09/13 07:41:34;;;;;;;19.60;8.93;;;13.70;99.90;;;;;;5041589;28;20904;-67
2021/09/13 07:44:01;;;;;;;15.23;7.47;;;13.60;99.90;;;;;;5054577;28;20429;-65
2021/09/13 07:46:29;;;;;;;16.30;9.20;;;13.70;99.90;;;;;;5054899;28;20808;-66
2021/09/13 07:48:56;;;;;;;14.83;6.73;;;13.70;99.90;;;;;;5055444;28;20514;-67
2021/09/13 07:51:23;;;;;;;17.63;7.80;;;13.70;99.90;;;;;;5055181;28;20482;-67
2021/09/13 07:53:54;;;;;;;16.40;10.10;;;13.70;99.90;;;;;;5053973;28;20420;-66
2021/09/13 07:56:21;;;;;;;17.73;10.07;;;13.70;99.90;;;;;;5055221;28;20413;-66
2021/09/13 07:58:48;;;;;;;15.03;6.80;;;13.70;99.90;;;;;;5053097;28;20526;-67
2021/09/13 08:01:16;;;;;;;15.23;7.43;;;13.60;99.90;;;;;;5053776;28;20491;-66
2021/09/13 08:03:44;;;;;;;15.57;7.27;;;13.60;99.90;;;;;;5054618;28;20433;-65
2021/09/13 08:06:12;;;;;;;15.43;6.53;;;13.50;99.90;;;;;;5061839;28;20432;-66
2021/09/13 08:08:39;;;;;;;16.57;9.80;;;13.50;99.90;;;;;;5074015;28;20436;-66
2021/09/13 08:11:08;;;;;;;17.70;8.73;;;13.50;99.90;;;;;;5073352;28;20944;-66
2021/09/13 08:13:39;;;;;;;14.97;6.80;;;13.40;99.90;;;;;;5064258;28;20460;-67
2021/09/13 08:16:08;;;;;;;15.77;6.80;;;13.50;99.90;;;;;;5060807;28;20482;-68
2021/09/13 08:18:35;;;;;;;15.93;8.97;;;13.40;99.90;;;;;;5067956;28;20443;-65
2021/09/13 08:21:02;;;;;;;22.33;7.97;;;13.30;99.90;;;;;;5060272;28;20419;-65
2021/09/13 08:23:33;;;;;;;16.57;9.43;;;13.30;99.90;;;;;;5071958;28;20416;-67
2021/09/13 08:26:02;;;;;;;15.03;7.13;;;13.30;99.90;;;;;;5069757;28;20427;-66
2021/09/13 08:28:29;;;;;;;19.13;13.57;;;13.20;99.90;;;;;;5051636;28;20478;-67
2021/09/13 08:30:57;;;;;;;15.53;7.67;;;13.20;99.90;;;;;;5056125;28;20479;-66
2021/09/13 08:33:24;;;;;;;14.53;6.17;;;13.20;99.90;;;;;;5060854;28;20439;-66
2021/09/13 08:35:54;;;;;;;15.00;6.83;;;13.20;99.90;;;;;;5065611;28;20942;-65
2021/09/13 08:38:25;;;;;;;17.07;6.60;;;13.10;99.90;;;;;;5068885;28;20427;-66
2021/09/13 08:40:54;;;;;;;14.87;6.00;;;13.10;99.90;;;;;;5056478;28;20935;-65
2021/09/13 08:43:22;;;;;;;17.33;6.27;;;13.10;99.90;;;;;;5059433;28;20420;-66
2021/09/13 08:45:54;;;;;;;14.47;5.87;;;13.10;99.90;;;;;;5054620;28;21072;-66
2021/09/13 08:48:27;;;;;;;15.77;8.10;;;13.00;99.90;;;;;;5057586;28;20429;-67
2021/09/13 08:53:35;;;;;;;17.07;10.20;;;13.00;99.90;;;;;;5067329;28;20462;-65
2021/09/13 08:56:05;;;;;;;15.07;6.73;;;13.00;99.90;;;;;;5063893;28;20456;-66
2021/09/13 08:58:36;;;;;;;16.83;10.20;;;12.90;99.90;;;;;;5065553;28;20453;-67
2021/09/13 09:01:04;;;;;;;15.27;7.33;;;12.90;99.90;;;;;;5047745;28;20461;-66
2021/09/13 09:03:35;;;;;;;15.07;7.13;;;12.90;99.90;;;;;;5051822;28;20429;-67
2021/09/13 09:06:03;;;;;;;15.57;7.53;;;12.90;99.90;;;;;;5052219;28;20425;-66
2021/09/13 09:08:32;;;;;;;15.67;8.20;;;12.80;99.90;;;;;;5059792;28;20438;-66
2021/09/13 09:11:08;;;;;;;16.57;8.50;;;12.80;99.90;;;;;;5052028;28;20524;-66
2021/09/13 09:13:42;;;;;;;15.20;7.30;;;12.80;99.90;;;;;;5049778;28;20417;-66
2021/09/13 09:16:12;;;;;;;15.10;6.70;;;12.80;99.90;;;;;;5048384;28;21084;-67
2021/09/13 09:18:46;;;;;;;16.23;8.60;;;12.70;99.90;;;;;;5052186;28;20829;-66
2021/09/13 09:21:29;;;;;;;14.77;6.53;;;12.80;99.90;;;;;;5069863;28;20436;-66
2021/09/13 09:24:01;;;;;;;16.90;9.70;;;12.80;99.90;;;;;;5045264;28;20509;-66
2021/09/13 09:26:30;;;;;;;16.67;8.37;;;12.90;99.90;;;;;;5043920;28;21028;-66
2021/09/13 09:28:58;;;;;;;15.63;8.23;;;12.80;99.90;;;;;;5052489;28;21006;-66
2021/09/13 09:31:56;;;;;;;15.17;7.47;;;12.90;99.90;;;;;;5052837;28;20424;-67
2021/09/13 09:34:28;;;;;;;14.90;6.37;;;12.90;99.90;;;;;;5043170;28;20460;-67
2021/09/13 09:37:06;;;;;;;14.70;5.67;;;12.90;99.90;;;;;;5052441;28;20956;-67
2021/09/13 09:39:40;;;;;;;15.37;7.37;;;13.00;99.90;;;;;;5052436;28;20425;-67
2021/09/13 09:42:11;;;;;;;15.40;7.37;;;13.00;99.90;;;;;;5052617;28;20427;-66
2021/09/13 09:44:44;;;;;;;17.70;10.40;;;13.10;99.90;;;;;;5052550;28;20517;-66
2021/09/13 09:47:13;;;;;;;15.40;7.37;;;13.10;99.90;;;;;;5052574;28;20511;-67
2021/09/13 09:49:51;;;;;;;14.30;5.33;;;13.20;99.90;;;;;;5051643;28;20551;-66
2021/09/13 09:52:49;;;;;;;14.73;6.17;;;13.20;99.90;;;;;;5052781;28;20450;-67
2021/09/13 09:55:19;;;;;;;14.57;6.00;;;13.30;99.90;;;;;;5051149;28;20425;-67
2021/09/13 09:58:10;;;;;;;15.03;6.40;;;13.30;99.90;;;;;;5051768;28;20417;-67
2021/09/13 10:00:38;;;;;;;15.63;7.93;;;13.30;99.90;;;;;;5045060;28;20421;-67
2021/09/13 10:03:09;;;;;;;15.97;7.80;;;13.30;99.90;;;;;;5052572;28;20472;-66
2021/09/13 10:05:37;;;;;;;15.00;6.47;;;13.40;99.90;;;;;;5063896;28;20495;-67
2021/09/13 10:08:06;;;;;;;14.90;6.50;;;13.40;99.90;;;;;;5049017;28;20566;-66
2021/09/13 10:10:33;;;;;;;16.17;8.40;;;13.40;99.90;;;;;;5065794;28;20571;-66
2021/09/13 10:13:02;;;;;;;15.00;6.83;;;13.40;99.90;;;;;;5054671;28;20426;-66
2021/09/13 10:15:30;;;;;;;15.97;6.73;;;13.40;99.90;;;;;;5057412;28;20484;-65
2021/09/13 10:17:58;;;;;;;14.97;6.40;;;13.40;99.90;;;;;;5072677;28;20404;-65
2021/09/13 10:20:26;;;;;;;16.40;6.27;;;13.40;99.90;;;;;;5058283;28;20446;-64
2021/09/13 10:22:56;;;;;;;14.83;6.37;;;13.30;99.90;;;;;;5061101;28;20510;-65
2021/09/13 10:25:30;;;;;;;15.10;6.83;;;13.40;99.90;;;;;;5048361;28;20773;-65
2021/09/13 10:28:05;;;;;;;14.70;5.93;;;13.30;99.90;;;;;;5062951;28;20420;-65
2021/09/13 10:30:34;;;;;;;16.07;9.00;;;13.30;99.90;;;;;;5056843;28;20475;-65
2021/09/13 10:33:12;;;;;;;14.83;6.20;;;13.20;99.90;;;;;;5045149;28;20473;-66
2021/09/13 10:35:56;;;;;;;14.43;5.77;;;13.10;99.90;;;;;;5069640;28;20423;-65
2021/09/13 10:38:47;;;;;;;14.73;6.43;;;13.00;99.90;;;;;;5044413;28;20424;-64
2021/09/13 10:41:53;;;;;;;19.97;7.27;;;13.00;99.90;;;;;;5046799;28;20400;-64
2021/09/13 10:44:36;;;;;;;14.67;6.10;;;13.00;99.90;;;;;;5071274;28;20447;-64
2021/09/13 10:47:05;;;;;;;14.73;6.30;;;12.90;99.90;;;;;;5047445;28;20516;-66
2021/09/13 10:49:33;;;;;;;14.47;5.63;;;12.80;99.90;;;;;;5062396;28;20872;-65
2021/09/13 10:52:28;;;;;;;14.53;5.93;;;12.80;99.90;;;;;;5064501;28;20416;-64
2021/09/13 10:55:31;;;;;;;15.13;7.00;;;12.70;99.90;;;;;;5060039;28;20514;-65
2021/09/13 10:58:12;;;;;;;15.17;7.27;;;12.70;99.90;;;;;;5066650;28;20437;-65
2021/09/13 11:00:42;;;;;;;20.83;8.57;;;12.60;99.90;;;;;;5051940;28;20409;-65
2021/09/13 11:03:35;;;;;;;17.90;8.87;;;12.50;99.90;;;;;;5051893;28;20502;-65
2021/09/13 11:06:06;;;;;;;17.50;6.70;;;12.40;99.90;;;;;;5051912;28;20496;-66
2021/09/13 11:08:50;;;;;;;14.67;6.03;;;12.30;99.90;;;;;;5050689;28;21007;-66
2021/09/13 11:11:20;;;;;;;14.30;5.50;;;12.40;99.90;;;;;;5051260;28;20447;-66
2021/09/13 11:14:11;;;;;;;16.33;7.53;;;12.30;99.90;;;;;;5051450;28;20847;-65
2021/09/13 11:16:41;;;;;;;16.60;10.37;;;12.30;99.90;;;;;;5031239;28;20498;-66
2021/09/13 11:19:11;;;;;;;15.47;8.00;;;12.30;99.90;;;;;;5049868;28;20483;-65
2021/09/13 11:21:42;;;;;;;16.03;9.37;;;12.30;99.90;;;;;;5051549;28;20429;-67
2021/09/13 11:24:16;;;;;;;16.37;8.60;;;12.30;99.90;;;;;;5051372;28;20984;-66
2021/09/13 11:26:44;;;;;;;14.83;6.90;;;12.30;99.90;;;;;;5051775;28;20532;-66
2021/09/13 11:29:18;;;;;;;14.70;6.47;;;12.30;99.90;;;;;;5052144;28;20475;-66
2021/09/13 11:32:00;;;;;;;14.53;5.83;;;12.30;99.90;;;;;;5051722;28;20432;-66
2021/09/13 11:34:36;;;;;;;16.00;8.63;;;12.40;99.90;;;;;;5048152;28;20566;-66
2021/09/13 11:37:19;;;;;;;14.87;6.87;;;12.30;99.90;;;;;;5036183;28;20412;-66
2021/09/13 11:39:57;;;;;;;14.50;6.13;;;12.30;99.90;;;;;;5051119;28;20425;-66
2021/09/13 11:42:32;;;;;;;14.83;6.67;;;12.30;99.90;;;;;;5052002;28;20430;-66
2021/09/13 11:45:15;;;;;;;16.17;9.13;;;12.30;99.90;;;;;;5042276;28;20416;-66
2021/09/13 11:47:43;;;;;;;15.70;7.87;;;12.30;99.90;;;;;;5055410;28;20451;-66
2021/09/13 11:50:11;;;;;;;14.90;6.60;;;12.20;99.90;;;;;;5055216;28;20476;-66
2021/09/13 11:52:40;;;;;;;15.83;8.43;;;12.10;99.90;;;;;;5053766;28;20489;-66
2021/09/13 11:55:10;;;;;;;15.77;7.30;;;12.10;99.90;;;;;;5052903;28;20565;-67
2021/09/13 11:57:41;;;;;;;15.10;6.57;;;12.10;99.90;;;;;;5055670;28;20818;-66
2021/09/13 12:00:11;;;;;;;16.67;9.30;;;12.10;99.90;;;;;;5054478;28;20449;-67
2021/09/13 12:02:41;;;;;;;15.60;8.43;;;11.90;99.90;;;;;;5054855;28;20464;-66
2021/09/13 12:05:13;;;;;;;15.07;7.20;;;11.80;99.90;;;;;;5054507;28;20456;-66
2021/09/13 12:07:44;;;;;;;13.50;6.67;;;11.70;99.90;;;;;;5048314;28;20436;-67
2021/09/13 12:10:17;;;;;;;13.73;6.97;;;11.70;99.90;;;;;;5053665;28;20526;-66
2021/09/13 12:12:48;;;;;;;25.80;10.87;;;11.60;99.90;;;;;;5053712;28;20436;-67
2021/09/13 12:15:18;;;;;;;13.17;6.40;;;11.70;99.90;;;;;;5053134;28;20452;-65
2021/09/13 12:17:50;;;;;;;13.50;6.53;;;11.60;99.90;;;;;;5052350;28;20435;-66
2021/09/13 12:20:38;;;;;;;13.40;6.30;;;11.60;99.90;;;;;;5054648;28;20421;-66
2021/09/13 12:23:14;;;;;;;13.27;6.83;;;11.60;99.90;;;;;;5045799;28;20433;-67
2021/09/13 12:25:47;;;;;;;13.10;6.43;;;11.70;99.90;;;;;;5052567;28;20577;-67
2021/09/13 12:28:28;;;;;;;13.83;7.73;;;11.80;99.90;;;;;;5054350;28;20914;-65
2021/09/13 12:31:01;;;;;;;13.67;6.40;;;11.80;99.90;;;;;;5052801;28;20487;-65
2021/09/13 12:33:46;;;;;;;13.70;7.50;;;11.80;99.90;;;;;;5054348;28;21001;-67
2021/09/13 12:36:25;;;;;;;15.27;8.93;;;11.70;99.90;;;;;;5050068;28;20420;-68
2021/09/13 12:38:58;;;;;;;16.97;10.53;;;11.60;99.90;;;;;;5043502;28;20478;-65
2021/09/13 12:41:51;;;;;;;15.73;10.80;;;11.60;99.90;;;;;;5051717;28;20467;-66
2021/09/13 12:44:26;;;;;;;13.60;7.00;;;11.60;99.90;;;;;;5054338;28;20428;-66
2021/09/13 12:46:56;;;;;;;13.00;6.47;;;11.60;99.90;;;;;;5053714;28;20408;-65
2021/09/13 12:49:27;;;;;;;14.70;7.47;;;11.50;99.90;;;;;;5054231;28;20452;-67
2021/09/13 12:52:05;;;;;;;14.03;7.97;;;11.50;99.90;;;;;;5053834;28;20416;-66
2021/09/13 12:54:34;;;;;;;13.83;8.00;;;11.30;99.90;;;;;;5051736;28;20440;-65
2021/09/13 12:57:03;;;;;;;12.53;5.77;;;11.20;99.90;;;;;;5053384;28;20515;-65